sensor_id;sensor_type;location;lat;lon;timestamp;P1;durP1;ratioP1;P2;durP2;ratioP2
7607;SDS011;3845;48.120;11.534;2022-09-28T00:01:43;0.80;;;0.80;;
7607;SDS011;3845;48.120;11.534;2022-09-28T00:04:08;1.27;;;1.00;;
7607;SDS011;3845;48.120;11.534;2022-09-28T00:06:33;1.57;;;1.00;;
7607;SDS011;3845;48.120;11.534;2022-09-28T00:08:59;1.47;;;1.03;;
7607;SDS011;3845;48.120;11.534;2022-09-28T00:11:26;1.00;;;0.90;;
7607;SDS011;3845;48.120;11.534;2022-09-28T00:13:52;0.70;;;0.70;;
7607;SDS011;3845;48.120;11.534;2022-09-28T00:16:21;1.00;;;0.80;;
7607;SDS011;3845;48.120;11.534;2022-09-28T00:18:48;0.80;;;0.80;;
7607;SDS011;3845;48.120;11.534;2022-09-28T00:21:16;1.40;;;0.97;;
7607;SDS011;3845;48.120;11.534;2022-09-28T00:23:46;0.70;;;0.70;;
7607;SDS011;3845;48.120;11.534;2022-09-28T00:26:31;0.80;;;0.80;;
7607;SDS011;3845;48.120;11.534;2022-09-28T00:28:58;1.07;;;0.77;;
7607;SDS011;3845;48.120;11.534;2022-09-28T00:31:25;0.77;;;0.70;;
7607;SDS011;3845;48.120;11.534;2022-09-28T00:33:53;0.90;;;0.80;;
7607;SDS011;3845;48.120;11.534;2022-09-28T00:36:21;0.70;;;0.70;;
7607;SDS011;3845;48.120;11.534;2022-09-28T00:38:47;0.93;;;0.70;;
7607;SDS011;3845;48.120;11.534;2022-09-28T00:41:13;0.90;;;0.80;;
7607;SDS011;3845;48.120;11.534;2022-09-28T00:43:39;0.90;;;0.80;;
7607;SDS011;3845;48.120;11.534;2022-09-28T00:46:05;0.80;;;0.80;;
7607;SDS011;3845;48.120;11.534;2022-09-28T00:48:36;0.83;;;0.70;;
7607;SDS011;3845;48.120;11.534;2022-09-28T00:51:04;0.67;;;0.60;;
7607;SDS011;3845;48.120;11.534;2022-09-28T00:53:33;0.67;;;0.67;;
7607;SDS011;3845;48.120;11.534;2022-09-28T00:56:02;0.80;;;0.70;;
7607;SDS011;3845;48.120;11.534;2022-09-28T00:58:32;0.87;;;0.80;;
7607;SDS011;3845;48.120;11.534;2022-09-28T01:01:01;1.20;;;0.83;;
7607;SDS011;3845;48.120;11.534;2022-09-28T01:03:27;0.70;;;0.70;;
7607;SDS011;3845;48.120;11.534;2022-09-28T01:05:53;1.10;;;0.70;;
7607;SDS011;3845;48.120;11.534;2022-09-28T01:08:20;0.80;;;0.80;;
7607;SDS011;3845;48.120;11.534;2022-09-28T01:10:49;1.13;;;0.97;;
7607;SDS011;3845;48.120;11.534;2022-09-28T01:13:15;1.20;;;1.00;;
7607;SDS011;3845;48.120;11.534;2022-09-28T01:15:43;0.93;;;0.70;;
7607;SDS011;3845;48.120;11.534;2022-09-28T01:21:01;1.60;;;0.80;;
7607;SDS011;3845;48.120;11.534;2022-09-28T01:26:46;1.23;;;0.80;;
7607;SDS011;3845;48.120;11.534;2022-09-28T01:29:34;1.00;;;0.83;;
7607;SDS011;3845;48.120;11.534;2022-09-28T01:40:41;1.17;;;0.80;;
7607;SDS011;3845;48.120;11.534;2022-09-28T01:43:08;0.67;;;0.67;;
7607;SDS011;3845;48.120;11.534;2022-09-28T01:45:55;3.50;;;0.97;;
7607;SDS011;3845;48.120;11.534;2022-09-28T01:48:43;1.13;;;0.83;;
7607;SDS011;3845;48.120;11.534;2022-09-28T01:51:15;1.03;;;0.80;;
7607;SDS011;3845;48.120;11.534;2022-09-28T01:53:45;0.93;;;0.87;;
7607;SDS011;3845;48.120;11.534;2022-09-28T01:56:18;0.90;;;0.80;;
7607;SDS011;3845;48.120;11.534;2022-09-28T01:58:48;1.97;;;0.73;;
7607;SDS011;3845;48.120;11.534;2022-09-28T02:01:19;1.37;;;0.87;;
7607;SDS011;3845;48.120;11.534;2022-09-28T02:03:48;2.23;;;0.97;;
7607;SDS011;3845;48.120;11.534;2022-09-28T02:06:21;1.40;;;1.00;;
7607;SDS011;3845;48.120;11.534;2022-09-28T02:08:52;1.70;;;1.00;;
7607;SDS011;3845;48.120;11.534;2022-09-28T02:11:20;0.90;;;0.87;;
7607;SDS011;3845;48.120;11.534;2022-09-28T02:16:28;0.77;;;0.77;;
7607;SDS011;3845;48.120;11.534;2022-09-28T02:19:04;0.87;;;0.83;;
7607;SDS011;3845;48.120;11.534;2022-09-28T02:21:31;2.23;;;0.83;;
7607;SDS011;3845;48.120;11.534;2022-09-28T02:24:05;0.90;;;0.80;;
7607;SDS011;3845;48.120;11.534;2022-09-28T02:26:38;1.10;;;0.90;;
7607;SDS011;3845;48.120;11.534;2022-09-28T02:29:06;0.70;;;0.70;;
7607;SDS011;3845;48.120;11.534;2022-09-28T02:31:32;1.70;;;1.03;;
7607;SDS011;3845;48.120;11.534;2022-09-28T02:33:57;1.50;;;1.40;;
7607;SDS011;3845;48.120;11.534;2022-09-28T02:36:23;2.20;;;1.40;;
7607;SDS011;3845;48.120;11.534;2022-09-28T02:38:49;1.50;;;1.20;;
7607;SDS011;3845;48.120;11.534;2022-09-28T02:46:58;0.93;;;0.80;;
7607;SDS011;3845;48.120;11.534;2022-09-28T02:52:44;0.97;;;0.90;;
7607;SDS011;3845;48.120;11.534;2022-09-28T02:55:40;1.13;;;0.90;;
7607;SDS011;3845;48.120;11.534;2022-09-28T03:01:05;1.13;;;0.80;;
7607;SDS011;3845;48.120;11.534;2022-09-28T03:06:22;1.33;;;0.90;;
7607;SDS011;3845;48.120;11.534;2022-09-28T03:09:04;0.70;;;0.70;;
7607;SDS011;3845;48.120;11.534;2022-09-28T03:11:53;2.40;;;0.77;;
7607;SDS011;3845;48.120;11.534;2022-09-28T03:14:21;1.40;;;1.00;;
7607;SDS011;3845;48.120;11.534;2022-09-28T03:16:46;1.33;;;0.77;;
7607;SDS011;3845;48.120;11.534;2022-09-28T03:19:11;1.07;;;0.80;;
7607;SDS011;3845;48.120;11.534;2022-09-28T03:21:37;1.30;;;0.90;;
7607;SDS011;3845;48.120;11.534;2022-09-28T03:24:03;1.20;;;0.93;;
7607;SDS011;3845;48.120;11.534;2022-09-28T03:26:30;1.33;;;0.97;;
7607;SDS011;3845;48.120;11.534;2022-09-28T03:28:58;1.60;;;1.00;;
7607;SDS011;3845;48.120;11.534;2022-09-28T03:31:23;0.90;;;0.80;;
7607;SDS011;3845;48.120;11.534;2022-09-28T03:33:49;1.23;;;0.90;;
7607;SDS011;3845;48.120;11.534;2022-09-28T03:36:15;1.00;;;0.80;;
7607;SDS011;3845;48.120;11.534;2022-09-28T03:38:40;1.07;;;0.80;;
7607;SDS011;3845;48.120;11.534;2022-09-28T03:41:06;1.07;;;0.80;;
7607;SDS011;3845;48.120;11.534;2022-09-28T03:43:31;1.43;;;0.70;;
7607;SDS011;3845;48.120;11.534;2022-09-28T03:45:57;0.80;;;0.80;;
7607;SDS011;3845;48.120;11.534;2022-09-28T03:48:25;1.00;;;0.80;;
7607;SDS011;3845;48.120;11.534;2022-09-28T03:50:55;1.30;;;1.00;;
7607;SDS011;3845;48.120;11.534;2022-09-28T03:53:21;0.80;;;0.70;;
7607;SDS011;3845;48.120;11.534;2022-09-28T03:55:46;0.77;;;0.70;;
7607;SDS011;3845;48.120;11.534;2022-09-28T03:58:12;1.33;;;0.90;;
7607;SDS011;3845;48.120;11.534;2022-09-28T04:00:37;0.70;;;0.70;;
7607;SDS011;3845;48.120;11.534;2022-09-28T04:03:03;1.20;;;1.00;;
7607;SDS011;3845;48.120;11.534;2022-09-28T04:05:28;1.20;;;1.00;;
7607;SDS011;3845;48.120;11.534;2022-09-28T04:07:54;2.87;;;1.03;;
7607;SDS011;3845;48.120;11.534;2022-09-28T04:10:23;1.13;;;0.87;;
7607;SDS011;3845;48.120;11.534;2022-09-28T04:12:49;1.07;;;0.80;;
7607;SDS011;3845;48.120;11.534;2022-09-28T04:15:18;1.23;;;1.00;;
7607;SDS011;3845;48.120;11.534;2022-09-28T04:17:43;3.00;;;1.00;;
7607;SDS011;3845;48.120;11.534;2022-09-28T04:20:08;1.10;;;1.00;;
7607;SDS011;3845;48.120;11.534;2022-09-28T04:22:34;1.37;;;0.90;;
7607;SDS011;3845;48.120;11.534;2022-09-28T04:25:01;2.17;;;1.00;;
7607;SDS011;3845;48.120;11.534;2022-09-28T04:27:27;1.30;;;0.90;;
7607;SDS011;3845;48.120;11.534;2022-09-28T04:30:12;1.10;;;0.90;;
7607;SDS011;3845;48.120;11.534;2022-09-28T04:32:37;1.13;;;1.00;;
7607;SDS011;3845;48.120;11.534;2022-09-28T04:35:02;1.60;;;0.90;;
7607;SDS011;3845;48.120;11.534;2022-09-28T04:37:28;1.17;;;0.80;;
7607;SDS011;3845;48.120;11.534;2022-09-28T04:39:55;1.97;;;1.73;;
7607;SDS011;3845;48.120;11.534;2022-09-28T04:42:20;2.30;;;1.77;;
7607;SDS011;3845;48.120;11.534;2022-09-28T04:44:45;1.90;;;1.60;;
7607;SDS011;3845;48.120;11.534;2022-09-28T04:47:11;2.17;;;1.40;;
7607;SDS011;3845;48.120;11.534;2022-09-28T04:49:36;1.63;;;1.20;;
7607;SDS011;3845;48.120;11.534;2022-09-28T04:52:02;2.43;;;1.83;;
7607;SDS011;3845;48.120;11.534;2022-09-28T04:54:28;2.13;;;1.57;;
7607;SDS011;3845;48.120;11.534;2022-09-28T04:56:53;2.93;;;1.40;;
7607;SDS011;3845;48.120;11.534;2022-09-28T04:59:19;1.57;;;1.20;;
7607;SDS011;3845;48.120;11.534;2022-09-28T05:01:44;1.20;;;1.10;;
7607;SDS011;3845;48.120;11.534;2022-09-28T05:04:11;1.47;;;1.07;;
7607;SDS011;3845;48.120;11.534;2022-09-28T05:06:37;1.10;;;1.00;;
7607;SDS011;3845;48.120;11.534;2022-09-28T05:09:02;1.00;;;0.90;;
7607;SDS011;3845;48.120;11.534;2022-09-28T05:11:27;1.97;;;1.00;;
7607;SDS011;3845;48.120;11.534;2022-09-28T05:13:53;1.23;;;1.03;;
7607;SDS011;3845;48.120;11.534;2022-09-28T05:16:19;1.00;;;0.90;;
7607;SDS011;3845;48.120;11.534;2022-09-28T05:18:44;2.13;;;1.50;;
7607;SDS011;3845;48.120;11.534;2022-09-28T05:21:13;2.20;;;1.80;;
7607;SDS011;3845;48.120;11.534;2022-09-28T05:23:39;3.70;;;2.83;;
7607;SDS011;3845;48.120;11.534;2022-09-28T05:26:09;2.10;;;1.90;;
7607;SDS011;3845;48.120;11.534;2022-09-28T05:28:34;2.57;;;1.83;;
7607;SDS011;3845;48.120;11.534;2022-09-28T05:31:00;1.93;;;1.70;;
7607;SDS011;3845;48.120;11.534;2022-09-28T05:33:27;1.60;;;1.40;;
7607;SDS011;3845;48.120;11.534;2022-09-28T05:35:53;1.87;;;1.20;;
7607;SDS011;3845;48.120;11.534;2022-09-28T05:38:18;1.83;;;1.40;;
7607;SDS011;3845;48.120;11.534;2022-09-28T05:40:43;1.60;;;1.50;;
7607;SDS011;3845;48.120;11.534;2022-09-28T05:43:09;2.03;;;1.63;;
7607;SDS011;3845;48.120;11.534;2022-09-28T05:45:34;1.60;;;1.47;;
7607;SDS011;3845;48.120;11.534;2022-09-28T05:47:59;2.03;;;1.70;;
7607;SDS011;3845;48.120;11.534;2022-09-28T05:50:25;9.93;;;7.53;;
7607;SDS011;3845;48.120;11.534;2022-09-28T05:53:04;20.10;;;16.70;;
7607;SDS011;3845;48.120;11.534;2022-09-28T05:55:32;16.87;;;13.67;;
7607;SDS011;3845;48.120;11.534;2022-09-28T05:57:58;10.00;;;8.67;;
7607;SDS011;3845;48.120;11.534;2022-09-28T06:00:24;10.47;;;6.53;;
7607;SDS011;3845;48.120;11.534;2022-09-28T06:03:00;4.10;;;3.37;;
7607;SDS011;3845;48.120;11.534;2022-09-28T06:05:28;3.20;;;2.60;;
7607;SDS011;3845;48.120;11.534;2022-09-28T06:07:54;4.47;;;2.10;;
7607;SDS011;3845;48.120;11.534;2022-09-28T06:10:20;3.63;;;3.10;;
7607;SDS011;3845;48.120;11.534;2022-09-28T06:12:45;3.37;;;2.60;;
7607;SDS011;3845;48.120;11.534;2022-09-28T06:15:13;3.13;;;2.50;;
7607;SDS011;3845;48.120;11.534;2022-09-28T06:17:39;3.20;;;2.30;;
7607;SDS011;3845;48.120;11.534;2022-09-28T06:20:04;2.50;;;2.17;;
7607;SDS011;3845;48.120;11.534;2022-09-28T06:22:30;2.10;;;1.90;;
7607;SDS011;3845;48.120;11.534;2022-09-28T06:24:55;2.70;;;1.80;;
7607;SDS011;3845;48.120;11.534;2022-09-28T06:27:20;3.43;;;2.57;;
7607;SDS011;3845;48.120;11.534;2022-09-28T06:29:45;2.80;;;2.30;;
7607;SDS011;3845;48.120;11.534;2022-09-28T06:32:11;4.43;;;3.13;;
7607;SDS011;3845;48.120;11.534;2022-09-28T06:34:37;3.13;;;2.47;;
7607;SDS011;3845;48.120;11.534;2022-09-28T06:37:03;3.03;;;2.40;;
7607;SDS011;3845;48.120;11.534;2022-09-28T06:39:28;1.70;;;1.60;;
7607;SDS011;3845;48.120;11.534;2022-09-28T06:41:53;1.77;;;1.30;;
7607;SDS011;3845;48.120;11.534;2022-09-28T06:44:19;2.27;;;1.50;;
7607;SDS011;3845;48.120;11.534;2022-09-28T06:46:44;2.00;;;1.40;;
7607;SDS011;3845;48.120;11.534;2022-09-28T06:49:09;1.10;;;1.00;;
7607;SDS011;3845;48.120;11.534;2022-09-28T06:51:35;2.87;;;2.37;;
7607;SDS011;3845;48.120;11.534;2022-09-28T06:54:01;2.20;;;1.80;;
7607;SDS011;3845;48.120;11.534;2022-09-28T06:56:26;1.87;;;1.47;;
7607;SDS011;3845;48.120;11.534;2022-09-28T06:58:52;2.13;;;1.60;;
7607;SDS011;3845;48.120;11.534;2022-09-28T07:01:17;2.07;;;1.60;;
7607;SDS011;3845;48.120;11.534;2022-09-28T07:03:42;1.70;;;1.60;;
7607;SDS011;3845;48.120;11.534;2022-09-28T07:06:09;1.43;;;1.33;;
7607;SDS011;3845;48.120;11.534;2022-09-28T07:08:35;1.30;;;1.20;;
7607;SDS011;3845;48.120;11.534;2022-09-28T07:11:03;1.60;;;1.20;;
7607;SDS011;3845;48.120;11.534;2022-09-28T07:13:30;1.80;;;1.40;;
7607;SDS011;3845;48.120;11.534;2022-09-28T07:15:58;3.30;;;1.40;;
7607;SDS011;3845;48.120;11.534;2022-09-28T07:18:24;1.73;;;1.30;;
7607;SDS011;3845;48.120;11.534;2022-09-28T07:20:52;2.67;;;1.33;;
7607;SDS011;3845;48.120;11.534;2022-09-28T07:23:20;2.10;;;1.70;;
7607;SDS011;3845;48.120;11.534;2022-09-28T07:25:46;2.87;;;1.53;;
7607;SDS011;3845;48.120;11.534;2022-09-28T07:28:12;2.30;;;1.43;;
7607;SDS011;3845;48.120;11.534;2022-09-28T07:30:38;2.07;;;1.43;;
7607;SDS011;3845;48.120;11.534;2022-09-28T07:33:04;3.30;;;1.67;;
7607;SDS011;3845;48.120;11.534;2022-09-28T07:35:32;1.60;;;1.40;;
7607;SDS011;3845;48.120;11.534;2022-09-28T07:38:05;3.97;;;2.00;;
7607;SDS011;3845;48.120;11.534;2022-09-28T07:40:31;2.57;;;1.97;;
7607;SDS011;3845;48.120;11.534;2022-09-28T07:43:16;3.47;;;1.90;;
7607;SDS011;3845;48.120;11.534;2022-09-28T07:45:45;2.03;;;1.80;;
7607;SDS011;3845;48.120;11.534;2022-09-28T07:48:20;4.30;;;1.40;;
7607;SDS011;3845;48.120;11.534;2022-09-28T07:50:48;3.37;;;2.40;;
7607;SDS011;3845;48.120;11.534;2022-09-28T07:53:16;2.80;;;1.70;;
7607;SDS011;3845;48.120;11.534;2022-09-28T07:58:17;1.77;;;1.40;;
7607;SDS011;3845;48.120;11.534;2022-09-28T08:00:43;1.50;;;1.30;;
7607;SDS011;3845;48.120;11.534;2022-09-28T08:03:11;1.90;;;1.50;;
7607;SDS011;3845;48.120;11.534;2022-09-28T08:05:36;2.37;;;1.30;;
7607;SDS011;3845;48.120;11.534;2022-09-28T08:08:01;1.63;;;1.00;;
7607;SDS011;3845;48.120;11.534;2022-09-28T08:10:27;1.63;;;1.10;;
7607;SDS011;3845;48.120;11.534;2022-09-28T08:12:55;1.33;;;1.10;;
7607;SDS011;3845;48.120;11.534;2022-09-28T08:15:22;2.17;;;1.03;;
7607;SDS011;3845;48.120;11.534;2022-09-28T08:17:47;2.17;;;1.00;;
7607;SDS011;3845;48.120;11.534;2022-09-28T08:20:13;1.47;;;0.90;;
7607;SDS011;3845;48.120;11.534;2022-09-28T08:23:06;1.00;;;0.90;;
7607;SDS011;3845;48.120;11.534;2022-09-28T08:25:32;2.93;;;1.87;;
7607;SDS011;3845;48.120;11.534;2022-09-28T08:28:00;2.40;;;1.90;;
7607;SDS011;3845;48.120;11.534;2022-09-28T08:30:26;4.43;;;2.30;;
7607;SDS011;3845;48.120;11.534;2022-09-28T08:32:51;2.97;;;2.00;;
7607;SDS011;3845;48.120;11.534;2022-09-28T08:35:17;1.90;;;1.60;;
7607;SDS011;3845;48.120;11.534;2022-09-28T08:37:42;3.10;;;1.47;;
7607;SDS011;3845;48.120;11.534;2022-09-28T08:40:15;1.90;;;1.30;;
7607;SDS011;3845;48.120;11.534;2022-09-28T08:42:43;4.07;;;1.20;;
7607;SDS011;3845;48.120;11.534;2022-09-28T08:45:10;2.60;;;1.20;;
7607;SDS011;3845;48.120;11.534;2022-09-28T08:47:52;1.30;;;1.20;;
7607;SDS011;3845;48.120;11.534;2022-09-28T08:50:47;1.20;;;1.10;;
7607;SDS011;3845;48.120;11.534;2022-09-28T08:53:23;3.20;;;2.57;;
7607;SDS011;3845;48.120;11.534;2022-09-28T08:55:55;5.70;;;4.10;;
7607;SDS011;3845;48.120;11.534;2022-09-28T08:58:22;2.97;;;2.60;;
7607;SDS011;3845;48.120;11.534;2022-09-28T09:00:52;1.93;;;1.27;;
7607;SDS011;3845;48.120;11.534;2022-09-28T09:03:28;1.77;;;1.00;;
7607;SDS011;3845;48.120;11.534;2022-09-28T09:11:21;0.73;;;0.70;;
7607;SDS011;3845;48.120;11.534;2022-09-28T09:17:01;1.07;;;0.90;;
7607;SDS011;3845;48.120;11.534;2022-09-28T09:19:34;1.33;;;0.87;;
7607;SDS011;3845;48.120;11.534;2022-09-28T09:22:09;1.33;;;0.90;;
7607;SDS011;3845;48.120;11.534;2022-09-28T09:24:49;1.00;;;0.90;;
7607;SDS011;3845;48.120;11.534;2022-09-28T09:30:10;1.47;;;1.10;;
7607;SDS011;3845;48.120;11.534;2022-09-28T09:41:19;2.00;;;1.30;;
7607;SDS011;3845;48.120;11.534;2022-09-28T09:44:09;2.20;;;1.60;;
7607;SDS011;3845;48.120;11.534;2022-09-28T09:46:58;3.20;;;2.20;;
7607;SDS011;3845;48.120;11.534;2022-09-28T09:49:36;2.50;;;1.67;;
7607;SDS011;3845;48.120;11.534;2022-09-28T09:54:43;2.90;;;1.80;;
7607;SDS011;3845;48.120;11.534;2022-09-28T09:57:12;1.97;;;1.50;;
7607;SDS011;3845;48.120;11.534;2022-09-28T10:00:00;3.97;;;3.03;;
7607;SDS011;3845;48.120;11.534;2022-09-28T10:02:30;3.33;;;2.63;;
7607;SDS011;3845;48.120;11.534;2022-09-28T10:07:38;1.87;;;1.23;;
7607;SDS011;3845;48.120;11.534;2022-09-28T10:10:49;2.50;;;1.10;;
7607;SDS011;3845;48.120;11.534;2022-09-28T10:13:01;2.03;;;1.20;;
7607;SDS011;3845;48.120;11.534;2022-09-28T10:15:28;2.63;;;1.53;;
7607;SDS011;3845;48.120;11.534;2022-09-28T10:17:56;2.10;;;1.53;;
7607;SDS011;3845;48.120;11.534;2022-09-28T10:20:22;1.70;;;1.30;;
7607;SDS011;3845;48.120;11.534;2022-09-28T10:22:49;2.40;;;1.47;;
7607;SDS011;3845;48.120;11.534;2022-09-28T10:25:15;1.80;;;1.53;;
7607;SDS011;3845;48.120;11.534;2022-09-28T10:27:42;2.27;;;1.27;;
7607;SDS011;3845;48.120;11.534;2022-09-28T10:32:38;8.93;;;7.10;;
7607;SDS011;3845;48.120;11.534;2022-09-28T10:37:48;3.90;;;2.77;;
7607;SDS011;3845;48.120;11.534;2022-09-28T10:40:54;3.30;;;1.80;;
7607;SDS011;3845;48.120;11.534;2022-09-28T10:43:23;1.43;;;1.30;;
7607;SDS011;3845;48.120;11.534;2022-09-28T10:45:59;1.37;;;1.17;;
7607;SDS011;3845;48.120;11.534;2022-09-28T10:48:27;1.97;;;1.30;;
7607;SDS011;3845;48.120;11.534;2022-09-28T10:50:58;1.40;;;1.00;;
7607;SDS011;3845;48.120;11.534;2022-09-28T10:53:27;2.90;;;1.13;;
7607;SDS011;3845;48.120;11.534;2022-09-28T10:56:03;1.60;;;1.10;;
7607;SDS011;3845;48.120;11.534;2022-09-28T10:58:39;2.00;;;1.30;;
7607;SDS011;3845;48.120;11.534;2022-09-28T11:01:39;1.57;;;1.10;;
7607;SDS011;3845;48.120;11.534;2022-09-28T11:04:04;1.03;;;0.93;;
7607;SDS011;3845;48.120;11.534;2022-09-28T11:06:35;1.27;;;1.00;;
7607;SDS011;3845;48.120;11.534;2022-09-28T11:09:08;1.20;;;1.00;;
7607;SDS011;3845;48.120;11.534;2022-09-28T11:11:48;1.03;;;0.93;;
7607;SDS011;3845;48.120;11.534;2022-09-28T11:16:44;1.67;;;0.90;;
7607;SDS011;3845;48.120;11.534;2022-09-28T11:21:44;1.20;;;0.90;;
7607;SDS011;3845;48.120;11.534;2022-09-28T11:26:43;1.50;;;1.20;;
7607;SDS011;3845;48.120;11.534;2022-09-28T11:29:20;1.40;;;1.20;;
7607;SDS011;3845;48.120;11.534;2022-09-28T11:32:06;1.27;;;1.10;;
7607;SDS011;3845;48.120;11.534;2022-09-28T11:34:33;1.60;;;1.30;;
7607;SDS011;3845;48.120;11.534;2022-09-28T11:37:14;1.83;;;1.20;;
7607;SDS011;3845;48.120;11.534;2022-09-28T11:45:50;1.97;;;1.53;;
7607;SDS011;3845;48.120;11.534;2022-09-28T11:48:22;1.87;;;1.20;;
7607;SDS011;3845;48.120;11.534;2022-09-28T11:51:01;2.23;;;1.40;;
7607;SDS011;3845;48.120;11.534;2022-09-28T11:53:29;2.17;;;1.23;;
7607;SDS011;3845;48.120;11.534;2022-09-28T12:04:34;10.00;;;4.30;;
7607;SDS011;3845;48.120;11.534;2022-09-28T12:07:22;3.17;;;2.07;;
7607;SDS011;3845;48.120;11.534;2022-09-28T12:10:07;3.77;;;1.80;;
7607;SDS011;3845;48.120;11.534;2022-09-28T12:12:40;2.10;;;1.50;;
7607;SDS011;3845;48.120;11.534;2022-09-28T12:15:14;2.37;;;1.70;;
7607;SDS011;3845;48.120;11.534;2022-09-28T12:17:44;3.10;;;1.80;;
7607;SDS011;3845;48.120;11.534;2022-09-28T12:20:22;2.37;;;1.60;;
7607;SDS011;3845;48.120;11.534;2022-09-28T12:25:18;6.00;;;4.77;;
7607;SDS011;3845;48.120;11.534;2022-09-28T12:28:02;4.80;;;3.63;;
7607;SDS011;3845;48.120;11.534;2022-09-28T12:30:34;3.23;;;2.20;;
7607;SDS011;3845;48.120;11.534;2022-09-28T12:33:11;2.40;;;1.60;;
7607;SDS011;3845;48.120;11.534;2022-09-28T12:57:47;2.10;;;1.90;;
7607;SDS011;3845;48.120;11.534;2022-09-28T13:00:18;4.43;;;3.10;;
7607;SDS011;3845;48.120;11.534;2022-09-28T13:09:17;1.90;;;1.60;;
7607;SDS011;3845;48.120;11.534;2022-09-28T13:17:23;2.40;;;1.70;;
7607;SDS011;3845;48.120;11.534;2022-09-28T13:23:21;3.07;;;1.80;;
7607;SDS011;3845;48.120;11.534;2022-09-28T13:25:53;2.57;;;1.60;;
7607;SDS011;3845;48.120;11.534;2022-09-28T13:28:21;1.67;;;1.30;;
7607;SDS011;3845;48.120;11.534;2022-09-28T13:30:47;2.10;;;1.40;;
7607;SDS011;3845;48.120;11.534;2022-09-28T13:33:35;1.70;;;1.40;;
7607;SDS011;3845;48.120;11.534;2022-09-28T13:36:01;2.80;;;1.43;;
7607;SDS011;3845;48.120;11.534;2022-09-28T13:38:29;1.77;;;1.30;;
7607;SDS011;3845;48.120;11.534;2022-09-28T14:00:29;3.93;;;1.73;;
7607;SDS011;3845;48.120;11.534;2022-09-28T14:05:44;2.53;;;1.60;;
7607;SDS011;3845;48.120;11.534;2022-09-28T14:08:31;4.97;;;2.33;;
7607;SDS011;3845;48.120;11.534;2022-09-28T14:13:59;3.10;;;1.90;;
7607;SDS011;3845;48.120;11.534;2022-09-28T14:16:25;4.63;;;1.83;;
7607;SDS011;3845;48.120;11.534;2022-09-28T14:18:59;3.60;;;2.20;;
7607;SDS011;3845;48.120;11.534;2022-09-28T14:32:37;3.43;;;2.30;;
7607;SDS011;3845;48.120;11.534;2022-09-28T14:35:04;3.33;;;2.67;;
7607;SDS011;3845;48.120;11.534;2022-09-28T14:37:36;3.27;;;2.40;;
7607;SDS011;3845;48.120;11.534;2022-09-28T14:40:24;5.67;;;4.13;;
7607;SDS011;3845;48.120;11.534;2022-09-28T14:43:19;3.67;;;3.00;;
7607;SDS011;3845;48.120;11.534;2022-09-28T14:54:00;3.70;;;2.23;;
7607;SDS011;3845;48.120;11.534;2022-09-28T14:56:27;3.67;;;1.77;;
7607;SDS011;3845;48.120;11.534;2022-09-28T14:58:56;2.63;;;1.80;;
7607;SDS011;3845;48.120;11.534;2022-09-28T15:01:22;3.10;;;2.23;;
7607;SDS011;3845;48.120;11.534;2022-09-28T15:03:52;3.40;;;2.00;;
7607;SDS011;3845;48.120;11.534;2022-09-28T15:06:22;3.53;;;1.93;;
7607;SDS011;3845;48.120;11.534;2022-09-28T15:08:48;2.20;;;1.70;;
7607;SDS011;3845;48.120;11.534;2022-09-28T15:11:19;2.20;;;1.70;;
7607;SDS011;3845;48.120;11.534;2022-09-28T15:13:46;2.73;;;1.70;;
7607;SDS011;3845;48.120;11.534;2022-09-28T15:16:12;2.53;;;2.00;;
7607;SDS011;3845;48.120;11.534;2022-09-28T15:21:22;2.90;;;1.77;;
7607;SDS011;3845;48.120;11.534;2022-09-28T15:23:47;2.37;;;1.80;;
7607;SDS011;3845;48.120;11.534;2022-09-28T15:26:23;2.67;;;1.90;;
7607;SDS011;3845;48.120;11.534;2022-09-28T15:28:51;2.60;;;1.63;;
7607;SDS011;3845;48.120;11.534;2022-09-28T15:31:18;2.53;;;1.97;;
7607;SDS011;3845;48.120;11.534;2022-09-28T15:33:45;1.83;;;1.67;;
7607;SDS011;3845;48.120;11.534;2022-09-28T15:36:30;2.10;;;1.80;;
7607;SDS011;3845;48.120;11.534;2022-09-28T15:38:59;2.10;;;1.70;;
7607;SDS011;3845;48.120;11.534;2022-09-28T15:41:25;2.13;;;1.50;;
7607;SDS011;3845;48.120;11.534;2022-09-28T15:46:36;1.60;;;1.40;;
7607;SDS011;3845;48.120;11.534;2022-09-28T15:49:03;3.17;;;1.77;;
7607;SDS011;3845;48.120;11.534;2022-09-28T15:51:30;1.77;;;1.50;;
7607;SDS011;3845;48.120;11.534;2022-09-28T15:54:06;2.43;;;1.83;;
7607;SDS011;3845;48.120;11.534;2022-09-28T15:56:53;3.57;;;1.80;;
7607;SDS011;3845;48.120;11.534;2022-09-28T16:04:34;2.07;;;1.50;;
7607;SDS011;3845;48.120;11.534;2022-09-28T16:07:04;3.07;;;1.70;;
7607;SDS011;3845;48.120;11.534;2022-09-28T16:15:02;2.53;;;1.73;;
7607;SDS011;3845;48.120;11.534;2022-09-28T16:17:30;2.13;;;1.65;;
7607;SDS011;3845;48.120;11.534;2022-09-28T16:19:58;2.77;;;1.80;;
7607;SDS011;3845;48.120;11.534;2022-09-28T16:22:25;3.63;;;2.40;;
7607;SDS011;3845;48.120;11.534;2022-09-28T16:24:55;2.40;;;1.90;;
7607;SDS011;3845;48.120;11.534;2022-09-28T16:30:02;2.93;;;1.80;;
7607;SDS011;3845;48.120;11.534;2022-09-28T16:32:44;2.10;;;1.80;;
7607;SDS011;3845;48.120;11.534;2022-09-28T16:35:15;3.27;;;1.90;;
7607;SDS011;3845;48.120;11.534;2022-09-28T16:37:42;2.87;;;1.93;;
7607;SDS011;3845;48.120;11.534;2022-09-28T16:40:08;1.93;;;1.73;;
7607;SDS011;3845;48.120;11.534;2022-09-28T16:42:34;2.77;;;2.20;;
7607;SDS011;3845;48.120;11.534;2022-09-28T16:45:00;2.20;;;1.97;;
7607;SDS011;3845;48.120;11.534;2022-09-28T16:47:29;3.40;;;2.10;;
7607;SDS011;3845;48.120;11.534;2022-09-28T16:49:58;2.20;;;1.90;;
7607;SDS011;3845;48.120;11.534;2022-09-28T16:52:23;3.03;;;2.10;;
7607;SDS011;3845;48.120;11.534;2022-09-28T16:55:11;3.53;;;1.90;;
7607;SDS011;3845;48.120;11.534;2022-09-28T16:57:40;2.93;;;1.90;;
7607;SDS011;3845;48.120;11.534;2022-09-28T17:00:09;2.60;;;1.90;;
7607;SDS011;3845;48.120;11.534;2022-09-28T17:02:39;2.17;;;1.60;;
7607;SDS011;3845;48.120;11.534;2022-09-28T17:05:04;3.47;;;1.87;;
7607;SDS011;3845;48.120;11.534;2022-09-28T17:07:31;2.37;;;1.80;;
7607;SDS011;3845;48.120;11.534;2022-09-28T17:09:56;2.33;;;1.80;;
7607;SDS011;3845;48.120;11.534;2022-09-28T17:12:21;2.90;;;1.90;;
7607;SDS011;3845;48.120;11.534;2022-09-28T17:14:48;2.27;;;1.90;;
7607;SDS011;3845;48.120;11.534;2022-09-28T17:17:13;2.70;;;2.10;;
7607;SDS011;3845;48.120;11.534;2022-09-28T17:19:39;2.47;;;1.80;;
7607;SDS011;3845;48.120;11.534;2022-09-28T17:22:04;2.60;;;1.83;;
7607;SDS011;3845;48.120;11.534;2022-09-28T17:24:31;3.27;;;2.00;;
7607;SDS011;3845;48.120;11.534;2022-09-28T17:26:57;1.90;;;1.70;;
7607;SDS011;3845;48.120;11.534;2022-09-28T17:29:24;2.83;;;1.90;;
7607;SDS011;3845;48.120;11.534;2022-09-28T17:31:51;2.67;;;2.00;;
7607;SDS011;3845;48.120;11.534;2022-09-28T17:34:18;2.27;;;1.83;;
7607;SDS011;3845;48.120;11.534;2022-09-28T17:36:44;2.67;;;2.00;;
7607;SDS011;3845;48.120;11.534;2022-09-28T17:39:13;2.80;;;2.13;;
7607;SDS011;3845;48.120;11.534;2022-09-28T17:41:40;3.77;;;2.30;;
7607;SDS011;3845;48.120;11.534;2022-09-28T17:44:06;2.57;;;2.00;;
7607;SDS011;3845;48.120;11.534;2022-09-28T17:46:33;2.77;;;2.00;;
7607;SDS011;3845;48.120;11.534;2022-09-28T17:49:00;3.40;;;2.10;;
7607;SDS011;3845;48.120;11.534;2022-09-28T17:51:30;2.53;;;1.93;;
7607;SDS011;3845;48.120;11.534;2022-09-28T17:53:58;3.00;;;2.00;;
7607;SDS011;3845;48.120;11.534;2022-09-28T17:56:25;3.40;;;1.93;;
7607;SDS011;3845;48.120;11.534;2022-09-28T17:58:51;3.03;;;2.30;;
7607;SDS011;3845;48.120;11.534;2022-09-28T18:01:16;3.23;;;2.00;;
7607;SDS011;3845;48.120;11.534;2022-09-28T18:03:42;3.43;;;2.20;;
7607;SDS011;3845;48.120;11.534;2022-09-28T18:06:15;3.03;;;2.23;;
7607;SDS011;3845;48.120;11.534;2022-09-28T18:08:43;3.50;;;2.40;;
7607;SDS011;3845;48.120;11.534;2022-09-28T18:11:09;3.10;;;2.47;;
7607;SDS011;3845;48.120;11.534;2022-09-28T18:13:35;4.10;;;2.27;;
7607;SDS011;3845;48.120;11.534;2022-09-28T18:16:01;2.47;;;2.27;;
7607;SDS011;3845;48.120;11.534;2022-09-28T18:18:27;4.97;;;2.30;;
7607;SDS011;3845;48.120;11.534;2022-09-28T18:20:52;3.10;;;2.60;;
7607;SDS011;3845;48.120;11.534;2022-09-28T18:23:18;4.87;;;3.83;;
7607;SDS011;3845;48.120;11.534;2022-09-28T18:25:43;7.93;;;6.23;;